createdAt,value
2017-12-08T00:01:23.983Z,6.00
2017-12-08T00:03:52.262Z,6.00
2017-12-08T00:06:19.755Z,6.00
2017-12-08T00:08:47.269Z,6.00
2017-12-08T00:11:15.531Z,6.00
2017-12-08T00:13:43.835Z,6.00
2017-12-08T00:16:11.326Z,6.00
2017-12-08T00:18:38.851Z,6.00
2017-12-08T00:21:06.346Z,6.00
2017-12-08T00:23:33.834Z,6.00
2017-12-08T00:26:01.346Z,5.90
2017-12-08T00:28:28.839Z,6.00
2017-12-08T00:30:56.358Z,6.00
2017-12-08T00:33:23.860Z,5.90
2017-12-08T00:35:51.370Z,5.90
2017-12-08T00:38:18.870Z,5.90
2017-12-08T00:40:46.394Z,5.90
2017-12-08T00:43:13.890Z,5.90
2017-12-08T00:45:41.380Z,5.90
2017-12-08T00:48:09.679Z,6.00
2017-12-08T00:50:37.170Z,5.90
2017-12-08T00:53:04.687Z,6.00
2017-12-08T00:55:33.027Z,6.10
2017-12-08T00:58:00.543Z,6.20
2017-12-08T01:00:28.701Z,6.20
2017-12-08T01:02:56.227Z,6.10
2017-12-08T01:05:24.504Z,6.10
2017-12-08T01:07:52.786Z,6.10
2017-12-08T01:10:21.038Z,6.10
2017-12-08T01:12:48.534Z,6.10
2017-12-08T01:15:16.891Z,6.10
2017-12-08T01:17:44.406Z,6.10
2017-12-08T01:20:11.994Z,6.20
2017-12-08T01:22:39.566Z,6.20
2017-12-08T01:25:07.082Z,6.20
2017-12-08T01:27:34.571Z,6.20
2017-12-08T01:30:02.087Z,6.20
2017-12-08T01:32:29.578Z,6.30
2017-12-08T01:34:57.094Z,6.30
2017-12-08T01:37:24.600Z,6.20
2017-12-08T01:39:52.123Z,6.30
2017-12-08T01:42:19.859Z,6.30
2017-12-08T01:44:49.056Z,6.30
2017-12-08T01:47:17.358Z,6.30
2017-12-08T01:49:44.858Z,6.30
2017-12-08T01:52:12.370Z,6.40
2017-12-08T01:54:39.860Z,6.40
2017-12-08T01:57:07.370Z,6.40
2017-12-08T01:59:35.621Z,6.40
2017-12-08T02:02:03.167Z,6.40
2017-12-08T02:04:30.654Z,6.40
2017-12-08T02:06:58.939Z,6.60
2017-12-08T02:09:27.209Z,6.60
2017-12-08T02:11:55.462Z,6.60
2017-12-08T02:14:22.974Z,6.60
2017-12-08T02:16:50.466Z,6.70
2017-12-08T02:19:17.979Z,6.70
2017-12-08T02:21:45.474Z,6.70
2017-12-08T02:24:12.987Z,6.70
2017-12-08T02:26:41.246Z,6.70
2017-12-08T02:29:09.529Z,6.70
2017-12-08T02:31:37.786Z,6.70
2017-12-08T02:34:05.327Z,6.70
2017-12-08T02:36:32.834Z,6.70
2017-12-08T02:39:01.093Z,6.60
2017-12-08T02:41:29.379Z,6.60
2017-12-08T02:43:57.630Z,6.60
2017-12-08T02:46:26.003Z,6.60
2017-12-08T02:48:53.518Z,6.60
2017-12-08T02:51:21.030Z,6.60
2017-12-08T02:53:49.286Z,6.60
2017-12-08T02:56:16.817Z,6.60
2017-12-08T02:58:44.306Z,6.60
2017-12-08T03:01:11.799Z,6.60
2017-12-08T03:03:40.078Z,6.60
2017-12-08T03:06:08.370Z,6.70
2017-12-08T03:08:35.886Z,6.60
2017-12-08T03:11:03.379Z,6.60
2017-12-08T03:13:31.658Z,6.60
2017-12-08T03:15:59.150Z,6.60
2017-12-08T03:18:26.666Z,6.70
2017-12-08T03:20:54.922Z,6.70
2017-12-08T03:23:22.414Z,6.70
2017-12-08T03:25:49.930Z,6.70
2017-12-08T03:28:17.418Z,6.70
2017-12-08T03:30:45.695Z,6.70
2017-12-08T03:33:13.958Z,6.70
2017-12-08T03:35:41.473Z,6.70
2017-12-08T03:38:08.967Z,6.70
2017-12-08T03:40:36.483Z,6.70
2017-12-08T03:43:03.979Z,6.70
2017-12-08T03:45:33.269Z,6.70
2017-12-08T03:48:00.777Z,6.70
2017-12-08T03:50:28.310Z,6.70
2017-12-08T03:52:56.590Z,6.80
2017-12-08T03:55:24.848Z,6.80
2017-12-08T03:57:52.378Z,6.70
2017-12-08T04:00:19.870Z,6.80
2017-12-08T04:02:48.146Z,6.40
2017-12-08T04:05:15.638Z,6.40
2017-12-08T04:07:43.130Z,6.30
2017-12-08T04:10:10.637Z,6.20
2017-12-08T04:12:38.886Z,5.90
2017-12-08T04:15:06.394Z,5.90
2017-12-08T04:17:33.882Z,5.80
2017-12-08T04:20:01.391Z,5.70
2017-12-08T04:22:29.642Z,5.60
2017-12-08T04:24:57.164Z,5.60
2017-12-08T04:27:24.653Z,5.60
2017-12-08T04:29:52.163Z,5.60
2017-12-08T04:32:19.670Z,5.60
2017-12-08T04:34:47.197Z,5.50
2017-12-08T04:37:14.713Z,5.50
2017-12-08T04:39:42.966Z,5.50
2017-12-08T04:42:10.478Z,5.50
2017-12-08T04:44:37.966Z,5.40
2017-12-08T04:47:05.474Z,5.50
2017-12-08T04:49:33.726Z,5.40
2017-12-08T04:52:02.006Z,5.40
2017-12-08T04:54:29.502Z,5.40
2017-12-08T04:56:56.990Z,5.40
2017-12-08T04:59:24.503Z,5.30
2017-12-08T05:01:51.990Z,5.30
2017-12-08T05:04:19.498Z,5.30
2017-12-08T05:06:47.758Z,5.30
2017-12-08T05:09:15.267Z,5.30
2017-12-08T05:11:42.758Z,5.30
2017-12-08T05:14:10.269Z,5.20
2017-12-08T05:16:37.758Z,5.20
2017-12-08T05:19:05.246Z,5.20
2017-12-08T05:21:32.757Z,5.20
2017-12-08T05:24:00.246Z,5.20
2017-12-08T05:26:27.758Z,5.20
2017-12-08T05:28:55.266Z,5.10
2017-12-08T05:31:22.778Z,5.10
2017-12-08T05:33:50.266Z,5.10
2017-12-08T05:36:17.777Z,5.10
2017-12-08T05:38:46.030Z,5.10
2017-12-08T05:41:13.518Z,5.10
2017-12-08T05:43:41.793Z,5.10
2017-12-08T05:46:10.050Z,5.10
2017-12-08T05:48:37.565Z,5.10
2017-12-08T05:51:05.053Z,5.10
2017-12-08T05:53:32.566Z,5.10
2017-12-08T05:56:00.053Z,5.10
2017-12-08T05:58:27.570Z,5.10
2017-12-08T06:00:55.061Z,5.00
2017-12-08T06:03:22.573Z,5.00
2017-12-08T06:05:50.826Z,4.90
2017-12-08T06:08:18.323Z,4.90
2017-12-08T06:10:45.835Z,4.90
2017-12-08T06:13:13.322Z,4.90
2017-12-08T06:15:41.601Z,4.90
2017-12-08T06:18:09.854Z,4.90
2017-12-08T06:20:37.362Z,4.90
2017-12-08T06:23:04.851Z,4.90
2017-12-08T06:25:32.401Z,4.90
2017-12-08T06:27:59.896Z,4.80
2017-12-08T06:30:27.410Z,4.80
2017-12-08T06:32:54.898Z,4.80
2017-12-08T06:35:22.390Z,4.80
2017-12-08T06:37:50.672Z,4.80
2017-12-08T06:40:18.174Z,4.80
2017-12-08T06:42:45.703Z,4.80
2017-12-08T06:45:13.191Z,4.90
2017-12-08T06:47:40.708Z,4.80
2017-12-08T06:50:08.190Z,4.90
2017-12-08T06:52:35.702Z,4.90
2017-12-08T06:55:03.958Z,4.80
2017-12-08T06:57:31.490Z,4.80
2017-12-08T06:59:59.749Z,4.70
2017-12-08T07:02:27.234Z,4.70
2017-12-08T07:04:54.742Z,4.70
2017-12-08T07:07:22.994Z,4.60
2017-12-08T07:09:50.506Z,4.60
2017-12-08T07:12:17.994Z,4.50
2017-12-08T07:14:45.501Z,4.50
2017-12-08T07:17:12.996Z,4.50
2017-12-08T07:19:40.510Z,4.50
2017-12-08T07:22:08.771Z,4.50
2017-12-08T07:24:37.050Z,4.50
2017-12-08T07:27:05.305Z,4.50
2017-12-08T07:29:32.819Z,4.50
2017-12-08T07:32:00.328Z,4.50
2017-12-08T07:34:27.819Z,4.50
2017-12-08T07:36:55.334Z,4.40
2017-12-08T07:39:22.827Z,4.40
2017-12-08T07:41:51.106Z,4.40
2017-12-08T07:44:19.362Z,4.40
2017-12-08T07:46:46.877Z,4.40
2017-12-08T07:49:14.366Z,4.40
2017-12-08T07:51:41.882Z,4.40
2017-12-08T07:54:09.374Z,4.40
2017-12-08T07:56:36.885Z,4.40
2017-12-08T07:59:04.374Z,4.40
2017-12-08T08:01:31.867Z,4.40
2017-12-08T08:03:59.386Z,4.50
2017-12-08T08:06:26.925Z,4.50
2017-12-08T08:08:54.408Z,4.60
2017-12-08T08:11:21.898Z,4.60
2017-12-08T08:13:49.410Z,4.60
2017-12-08T08:16:16.898Z,4.60
2017-12-08T08:18:44.391Z,4.70
2017-12-08T08:21:13.112Z,4.90
2017-12-08T08:23:40.605Z,4.90
2017-12-08T08:26:08.114Z,5.10
2017-12-08T08:28:35.605Z,5.30
2017-12-08T08:31:03.114Z,5.50
2017-12-08T08:33:31.370Z,5.90
2017-12-08T08:35:59.648Z,6.60
2017-12-08T08:38:27.138Z,6.50
2017-12-08T08:40:54.632Z,7.00
2017-12-08T08:43:22.154Z,7.40
2017-12-08T08:45:49.642Z,7.50
2017-12-08T08:48:17.154Z,7.50
2017-12-08T08:50:45.410Z,7.80
2017-12-08T08:53:12.918Z,7.80
2017-12-08T08:55:40.415Z,8.20
2017-12-08T08:58:07.943Z,8.80
2017-12-08T09:00:35.434Z,9.00
2017-12-08T09:03:02.923Z,9.50
2017-12-08T09:05:31.234Z,10.40
2017-12-08T09:07:58.726Z,10.40
2017-12-08T09:10:26.239Z,10.70
2017-12-08T09:12:53.750Z,10.90
2017-12-08T09:15:21.276Z,11.50
2017-12-08T09:17:48.770Z,11.60
2017-12-08T09:20:16.286Z,11.50
2017-12-08T09:22:43.785Z,11.30
2017-12-08T09:25:11.338Z,11.90
2017-12-08T09:27:38.834Z,11.60
2017-12-08T09:30:06.338Z,11.30
2017-12-08T09:32:33.871Z,11.40
2017-12-08T09:35:01.378Z,11.50
2017-12-08T09:37:28.905Z,11.40
2017-12-08T09:39:56.400Z,11.30
2017-12-08T09:42:24.678Z,11.60
2017-12-08T09:44:52.166Z,11.60
2017-12-08T09:47:19.678Z,11.80
2017-12-08T09:49:47.170Z,11.60
2017-12-08T09:52:15.430Z,11.70
2017-12-08T09:54:42.942Z,11.70
2017-12-08T09:57:10.432Z,11.70
2017-12-08T09:59:37.945Z,11.40
2017-12-08T10:02:05.439Z,11.30
2017-12-08T10:04:32.950Z,11.20
2017-12-08T10:07:00.441Z,11.30
2017-12-08T10:09:27.949Z,11.10
2017-12-08T10:11:56.211Z,10.50
2017-12-08T10:14:23.725Z,10.50
2017-12-08T10:16:51.213Z,10.70
2017-12-08T10:19:18.706Z,10.60
2017-12-08T10:21:46.987Z,11.00
2017-12-08T10:24:14.493Z,10.90
2017-12-08T10:26:42.002Z,11.20
2017-12-08T10:29:10.257Z,10.90
2017-12-08T10:31:37.766Z,10.80
2017-12-08T10:34:05.257Z,10.70
2017-12-08T10:36:32.766Z,10.60
2017-12-08T10:39:00.261Z,10.30
2017-12-08T10:41:27.777Z,10.10
2017-12-08T10:43:55.315Z,9.70
2017-12-08T10:46:22.782Z,8.90
2017-12-08T10:48:51.069Z,8.00
2017-12-08T10:51:18.559Z,8.00
2017-12-08T10:53:46.070Z,8.40
2017-12-08T10:56:14.322Z,8.20
2017-12-08T10:58:41.830Z,8.10
2017-12-08T11:01:09.318Z,7.70
2017-12-08T11:03:36.832Z,8.00
2017-12-08T11:06:04.322Z,8.60
2017-12-08T11:08:31.829Z,9.10
2017-12-08T11:11:00.090Z,8.90
2017-12-08T11:13:27.580Z,8.90
2017-12-08T11:15:55.855Z,9.00
2017-12-08T11:18:24.114Z,9.10
2017-12-08T11:20:52.391Z,9.40
2017-12-08T11:23:20.645Z,9.70
2017-12-08T11:25:48.156Z,9.70
2017-12-08T11:28:15.646Z,9.70
2017-12-08T11:30:43.155Z,9.30
2017-12-08T11:33:11.410Z,8.10
2017-12-08T11:35:38.922Z,8.10
2017-12-08T11:38:06.426Z,7.50
2017-12-08T11:40:33.915Z,7.60
2017-12-08T11:43:01.485Z,7.90
2017-12-08T11:45:28.930Z,8.40
2017-12-08T11:47:56.438Z,8.90
2017-12-08T11:50:23.926Z,8.80
2017-12-08T11:52:52.213Z,8.80
2017-12-08T11:55:20.462Z,8.80
2017-12-08T11:57:47.974Z,8.80
2017-12-08T12:00:15.462Z,8.80
2017-12-08T12:02:42.956Z,8.90
2017-12-08T12:05:11.234Z,8.20
2017-12-08T12:07:39.481Z,8.00
2017-12-08T12:10:06.990Z,8.00
2017-12-08T12:12:34.478Z,7.80
2017-12-08T12:15:01.987Z,7.60
2017-12-08T12:17:30.245Z,7.20
2017-12-08T12:19:57.754Z,7.20
2017-12-08T12:22:25.242Z,7.00
2017-12-08T12:24:52.754Z,7.00
2017-12-08T12:27:20.237Z,6.80
2017-12-08T12:29:47.797Z,6.60
2017-12-08T12:32:15.262Z,6.60
2017-12-08T12:34:42.899Z,6.50
2017-12-08T12:37:10.411Z,6.30
2017-12-08T12:39:37.914Z,6.10
2017-12-08T12:42:05.421Z,5.90
2017-12-08T12:44:32.912Z,5.70
2017-12-08T12:47:01.186Z,5.10
2017-12-08T12:49:29.438Z,4.90
2017-12-08T12:51:56.947Z,4.90
2017-12-08T12:54:24.437Z,4.80
2017-12-08T12:56:51.950Z,4.70
2017-12-08T12:59:19.434Z,4.70
2017-12-08T13:01:46.926Z,4.70
2017-12-08T13:04:14.446Z,4.70
2017-12-08T13:06:41.938Z,4.80
2017-12-08T13:09:09.450Z,4.70
2017-12-08T13:11:36.938Z,4.70
2017-12-08T13:14:04.453Z,4.70
2017-12-08T13:16:32.706Z,4.70
2017-12-08T13:19:00.217Z,4.70
2017-12-08T13:21:27.706Z,4.70
2017-12-08T13:23:55.218Z,4.70
2017-12-08T13:26:22.702Z,4.60
2017-12-08T13:28:50.197Z,4.50
2017-12-08T13:31:18.477Z,4.30
2017-12-08T13:33:45.961Z,4.30
2017-12-08T13:36:13.474Z,4.30
2017-12-08T13:38:40.962Z,4.20
2017-12-08T13:41:09.234Z,4.10
2017-12-08T13:43:37.490Z,4.10
2017-12-08T13:46:04.997Z,4.10
2017-12-08T13:48:32.481Z,4.20
2017-12-08T13:50:59.994Z,4.20
2017-12-08T13:53:40.186Z,4.20
2017-12-08T13:56:19.650Z,4.10
2017-12-08T13:58:47.138Z,4.10
2017-12-08T14:01:15.393Z,4.20
2017-12-08T14:03:42.902Z,4.20
2017-12-08T14:06:10.390Z,4.30
2017-12-08T14:08:37.898Z,4.40
2017-12-08T14:11:06.154Z,4.50
2017-12-08T14:13:33.667Z,4.40
2017-12-08T14:16:01.155Z,4.50
2017-12-08T14:18:28.667Z,4.40
2017-12-08T14:20:56.153Z,4.30
2017-12-08T14:23:23.662Z,4.20
2017-12-08T14:25:51.917Z,4.00
2017-12-08T14:28:19.406Z,4.00
2017-12-08T14:30:46.917Z,3.90
2017-12-08T14:33:14.405Z,3.80
2017-12-08T14:35:42.676Z,3.70
2017-12-08T14:38:10.933Z,3.70
2017-12-08T14:40:38.441Z,3.70
2017-12-08T14:43:05.929Z,3.70
2017-12-08T14:45:33.435Z,3.70
2017-12-08T14:48:01.689Z,3.70
2017-12-08T14:50:29.198Z,3.60
2017-12-08T14:52:56.682Z,3.60
2017-12-08T14:55:24.194Z,3.60
2017-12-08T14:57:52.449Z,3.60
2017-12-08T15:00:19.938Z,3.50
2017-12-08T15:02:47.446Z,3.50
2017-12-08T15:05:14.926Z,3.50
2017-12-08T15:07:42.430Z,3.50
2017-12-08T15:10:09.917Z,3.40
2017-12-08T15:12:37.426Z,3.40
2017-12-08T15:15:04.914Z,3.30
2017-12-08T15:17:32.422Z,3.20
2017-12-08T15:20:00.678Z,3.10
2017-12-08T15:22:28.186Z,3.10
2017-12-08T15:24:55.689Z,3.10
2017-12-08T15:27:23.189Z,3.00
2017-12-08T15:29:50.669Z,2.90
2017-12-08T15:32:18.286Z,2.90
2017-12-08T15:34:46.541Z,2.80
2017-12-08T15:37:14.054Z,2.80
2017-12-08T15:39:41.557Z,2.80
2017-12-08T15:42:09.042Z,2.80
2017-12-08T15:44:37.313Z,2.70
2017-12-08T15:47:05.573Z,2.70
2017-12-08T15:49:33.074Z,2.60
2017-12-08T15:52:00.563Z,2.60
2017-12-08T15:54:28.074Z,2.60
2017-12-08T15:56:56.329Z,2.50
2017-12-08T15:59:23.834Z,2.40
2017-12-08T16:01:51.323Z,2.40
2017-12-08T16:04:18.834Z,2.40
2017-12-08T16:06:46.330Z,2.40
2017-12-08T16:09:13.842Z,2.40
2017-12-08T16:11:42.094Z,2.30
2017-12-08T16:14:09.582Z,2.30
2017-12-08T16:16:37.857Z,2.30
2017-12-08T16:19:06.113Z,2.30
2017-12-08T16:21:34.397Z,2.30
2017-12-08T16:24:02.646Z,2.30
2017-12-08T16:26:30.153Z,2.20
2017-12-08T16:28:57.651Z,2.20
2017-12-08T16:31:25.162Z,2.20
2017-12-08T16:33:53.410Z,2.20
2017-12-08T16:36:20.917Z,2.20
2017-12-08T16:38:48.410Z,2.20
2017-12-08T16:41:15.922Z,2.20
2017-12-08T16:43:43.403Z,2.20
2017-12-08T16:46:10.918Z,2.20
2017-12-08T16:48:39.175Z,2.20
2017-12-08T16:51:06.662Z,2.20
2017-12-08T16:53:34.934Z,2.20
2017-12-08T16:56:03.194Z,2.30
2017-12-08T16:58:31.475Z,2.30
2017-12-08T17:00:59.726Z,2.30
2017-12-08T17:03:27.238Z,2.30
2017-12-08T17:05:54.729Z,2.30
2017-12-08T17:08:22.233Z,2.40
2017-12-08T17:10:50.487Z,2.40
2017-12-08T17:13:17.995Z,2.40
2017-12-08T17:15:45.486Z,2.40
2017-12-08T17:18:12.970Z,2.40
2017-12-08T17:20:40.483Z,2.40
2017-12-08T17:23:07.979Z,2.40
2017-12-08T17:25:35.496Z,2.40
2017-12-08T17:28:02.977Z,2.40
2017-12-08T17:30:30.492Z,2.40
2017-12-08T17:32:57.973Z,2.50
2017-12-08T17:35:25.486Z,2.50
2017-12-08T17:37:53.741Z,2.50
2017-12-08T17:40:21.249Z,2.50
2017-12-08T17:42:48.734Z,2.50
2017-12-08T17:45:16.306Z,2.50
2017-12-08T17:47:43.749Z,2.50
2017-12-08T17:50:11.234Z,2.50
2017-12-08T17:52:38.742Z,2.50
2017-12-08T17:55:06.229Z,2.50
2017-12-08T17:57:33.742Z,2.60
2017-12-08T18:00:02.010Z,2.60
2017-12-08T18:02:30.283Z,2.60
2017-12-08T18:04:58.536Z,2.70
2017-12-08T18:07:26.812Z,2.70
2017-12-08T18:09:54.301Z,2.70
2017-12-08T18:12:22.577Z,2.70
2017-12-08T18:14:50.833Z,2.70
2017-12-08T18:17:18.323Z,2.70
2017-12-08T18:19:45.846Z,2.70
2017-12-08T18:22:13.341Z,2.70
2017-12-08T18:24:40.850Z,2.60
2017-12-08T18:27:08.333Z,2.60
2017-12-08T18:29:36.610Z,2.70
2017-12-08T18:32:04.863Z,2.70
2017-12-08T18:34:32.373Z,2.70
2017-12-08T18:36:59.854Z,2.70
2017-12-08T18:39:27.362Z,2.70
2017-12-08T18:41:55.614Z,2.70
2017-12-08T18:44:23.098Z,2.70
2017-12-08T18:46:51.378Z,2.50
2017-12-08T18:49:19.630Z,2.30
2017-12-08T18:51:47.138Z,2.30
2017-12-08T18:54:14.626Z,2.20
2017-12-08T18:56:42.138Z,2.10
2017-12-08T18:59:09.678Z,2.00
2017-12-08T19:01:37.974Z,1.90
2017-12-08T19:04:06.226Z,1.90
2017-12-08T19:06:33.733Z,1.90
2017-12-08T19:09:01.245Z,1.90
2017-12-08T19:11:28.750Z,1.90
2017-12-08T19:13:56.238Z,1.90
2017-12-08T19:16:23.722Z,1.90
2017-12-08T19:18:51.990Z,2.00
2017-12-08T19:21:19.478Z,2.00
2017-12-08T19:23:46.989Z,2.10
2017-12-08T19:26:14.473Z,2.10
2017-12-08T19:28:42.741Z,2.10
2017-12-08T19:31:10.229Z,2.10
2017-12-08T19:33:37.738Z,2.00
2017-12-08T19:36:05.226Z,2.00
2017-12-08T19:38:33.497Z,1.90
2017-12-08T19:41:01.753Z,1.80
2017-12-08T19:43:29.271Z,1.80
2017-12-08T19:45:56.757Z,1.80
2017-12-08T19:48:24.246Z,1.80
2017-12-08T19:50:52.529Z,1.80
2017-12-08T19:53:20.782Z,1.80
2017-12-08T19:55:48.298Z,1.80
2017-12-08T19:58:15.790Z,1.80
2017-12-08T20:00:43.297Z,1.80
2017-12-08T20:03:10.785Z,1.80
2017-12-08T20:05:38.293Z,1.80
2017-12-08T20:08:06.549Z,1.80
2017-12-08T20:10:34.059Z,1.80
2017-12-08T20:13:01.550Z,1.80
2017-12-08T20:15:29.042Z,1.70
2017-12-08T20:17:57.317Z,1.70
2017-12-08T20:20:25.572Z,1.70
2017-12-08T20:22:53.081Z,1.70
2017-12-08T20:25:20.566Z,1.70
2017-12-08T20:27:48.069Z,1.70
2017-12-08T20:30:16.326Z,1.70
2017-12-08T20:32:44.597Z,1.70
2017-12-08T20:35:12.077Z,1.60
2017-12-08T20:37:40.354Z,1.70
2017-12-08T20:40:08.615Z,1.70
2017-12-08T20:42:36.134Z,1.70
2017-12-08T20:45:03.627Z,1.70
2017-12-08T20:47:31.114Z,1.70
2017-12-08T20:49:59.421Z,1.70
2017-12-08T20:52:26.910Z,1.70
2017-12-08T20:54:54.417Z,1.70
2017-12-08T20:57:22.670Z,1.70
2017-12-08T20:59:50.173Z,1.70
2017-12-08T21:02:17.662Z,1.70
2017-12-08T21:04:45.164Z,1.70
2017-12-08T21:07:13.418Z,1.70
2017-12-08T21:09:40.929Z,1.70
2017-12-08T21:12:08.423Z,1.70
2017-12-08T21:14:35.910Z,1.70
2017-12-08T21:17:04.186Z,1.70
2017-12-08T21:19:32.438Z,1.70
2017-12-08T21:21:59.947Z,1.70
2017-12-08T21:24:27.433Z,1.70
2017-12-08T21:26:54.941Z,1.70
2017-12-08T21:29:23.193Z,1.60
2017-12-08T21:31:52.210Z,1.60
2017-12-08T21:34:20.476Z,1.60
2017-12-08T21:36:48.754Z,1.60
2017-12-08T21:39:17.009Z,1.60
2017-12-08T21:41:44.498Z,1.60
2017-12-08T21:44:12.769Z,1.60
2017-12-08T21:46:41.037Z,1.60
2017-12-08T21:49:09.286Z,1.60
2017-12-08T21:51:36.773Z,1.60
2017-12-08T21:54:05.054Z,1.50
2017-12-08T21:56:33.495Z,1.50
2017-12-08T21:59:01.044Z,1.50
2017-12-08T22:01:28.562Z,1.50
2017-12-08T22:03:56.684Z,1.40
2017-12-08T22:06:24.410Z,1.40
2017-12-08T22:08:52.390Z,1.40
2017-12-08T22:11:19.925Z,1.40
2017-12-08T22:13:48.230Z,1.40
2017-12-08T22:16:15.745Z,1.30
2017-12-08T22:18:44.146Z,1.40
2017-12-08T22:21:11.646Z,1.40
2017-12-08T22:23:39.444Z,1.40
2017-12-08T22:26:07.761Z,1.30
2017-12-08T22:28:35.258Z,1.30
2017-12-08T22:31:02.774Z,1.30
2017-12-08T22:33:30.292Z,1.30
2017-12-08T22:35:57.906Z,1.30
2017-12-08T22:38:25.413Z,1.30
2017-12-08T22:40:52.943Z,1.20
2017-12-08T22:43:20.575Z,1.20
2017-12-08T22:45:48.094Z,1.20
2017-12-08T22:48:15.933Z,1.20
2017-12-08T22:50:43.462Z,1.20
2017-12-08T22:53:10.978Z,1.40
2017-12-08T22:55:38.985Z,1.50
2017-12-08T22:58:06.490Z,1.50
2017-12-08T23:00:34.112Z,1.60
2017-12-08T23:03:01.857Z,1.60
2017-12-08T23:05:30.142Z,1.70
2017-12-08T23:07:57.670Z,1.70
2017-12-08T23:10:25.925Z,1.80
2017-12-08T23:12:53.429Z,1.80
2017-12-08T23:15:20.914Z,1.80
2017-12-08T23:17:48.417Z,1.80
2017-12-08T23:20:15.903Z,1.90
2017-12-08T23:22:43.410Z,1.80
2017-12-08T23:25:10.893Z,1.80
2017-12-08T23:27:38.406Z,1.70
2017-12-08T23:30:05.924Z,1.60
2017-12-08T23:32:34.173Z,1.60
2017-12-08T23:35:01.690Z,1.60
2017-12-08T23:37:29.173Z,1.60
2017-12-08T23:39:56.677Z,1.50
2017-12-08T23:42:24.938Z,1.50
2017-12-08T23:44:53.214Z,1.50
2017-12-08T23:47:20.698Z,1.40
2017-12-08T23:49:48.210Z,1.40
2017-12-08T23:52:15.702Z,1.40
2017-12-08T23:54:43.969Z,1.30
2017-12-08T23:57:11.474Z,1.30
2017-12-08T23:59:38.977Z,1.30
